Time;durP1;ratioP1;P1;durP2;ratioP2;P2;SDS_P1;SDS_P2;PMS_P1;PMS_P2;Temp;Humidity;BMP_temperature;BMP_pressure;BME280_temperature;BME280_humidity;BME280_pressure;Samples;Min_cycle;Max_cycle;Signal;HPM_P1;HPM_P2
2022/03/08 00:01:35;;;;;;;;;;;;;;;;;;4203955;28;823;-58
2022/03/08 00:03:56;;;;;;;;;;;;;;;;;;4203791;28;818;-58
2022/03/08 00:06:16;;;;;;;;;;;;;;;;;;4203919;28;1190;-58
2022/03/08 00:08:37;;;;;;;;;;;;;;;;;;4203738;28;955;-59
2022/03/08 00:10:59;;;;;;;;;;;;;;;;;;4203594;28;1909;-59
2022/03/08 00:13:19;;;;;;;;;;;;;;;;;;4216625;28;1030;-59
2022/03/08 00:15:40;;;;;;;;;;;;;;;;;;4202451;28;1048;-59
2022/03/08 00:18:01;;;;;;;;;;;;;;;;;;4216493;28;922;-59
2022/03/08 00:20:22;;;;;;;;;;;;;;;;;;4203387;28;831;-59
2022/03/08 00:22:43;;;;;;;;;;;;;;;;;;4207015;28;1285;-59
2022/03/08 00:25:03;;;;;;;;;;;;;;;;;;4220124;28;1013;-59
2022/03/08 00:27:24;;;;;;;;;;;;;;;;;;4220257;28;951;-59
2022/03/08 00:29:45;;;;;;;;;;;;;;;;;;4219910;28;992;-60
2022/03/08 00:32:06;;;;;;;;;;;;;;;;;;4219878;28;1906;-59
2022/03/08 00:34:28;;;;;;;;;;;;;;;;;;4219229;28;996;-59
2022/03/08 00:36:48;;;;;;;;;;;;;;;;;;4220167;28;826;-59
2022/03/08 00:39:09;;;;;;;;;;;;;;;;;;4219084;28;1312;-59
2022/03/08 00:41:29;;;;;;;;;;;;;;;;;;4219122;28;1097;-59
2022/03/08 00:43:51;;;;;;;;;;;;;;;;;;4220195;28;933;-59
2022/03/08 00:46:11;;;;;;;;;;;;;;;;;;4219623;28;998;-59
2022/03/08 00:48:32;;;;;;;;;;;;;;;;;;4220149;28;1008;-59
2022/03/08 00:50:53;;;;;;;;;;;;;;;;;;4220100;28;1910;-59
2022/03/08 00:53:13;;;;;;;;;;;;;;;;;;4204801;28;1013;-59
2022/03/08 00:55:33;;;;;;;;;;;;;;;;;;4220098;28;762;-59
2022/03/08 00:57:54;;;;;;;;;;;;;;;;;;4220181;28;922;-59
2022/03/08 01:00:15;;;;;;;;;;;;;;;;;;4219142;28;837;-59
2022/03/08 01:02:35;;;;;;;;;;;;;;;;;;4218403;28;1597;-59
2022/03/08 01:04:56;;;;;;;;;;;;;;;;;;4218911;28;868;-59
2022/03/08 01:07:17;;;;;;;;;;;;;;;;;;4219971;28;959;-59
2022/03/08 01:09:38;;;;;;;;;;;;;;;;;;4219055;28;903;-59
2022/03/08 01:11:59;;;;;;;;;;;;;;;;;;4204657;28;1978;-59
2022/03/08 01:14:19;;;;;;;;;;;;;;;;;;4219804;28;910;-59
2022/03/08 01:16:40;;;;;;;;;;;;;;;;;;4219975;28;1030;-59
2022/03/08 01:19:01;;;;;;;;;;;;;;;;;;4209240;28;1144;-59
2022/03/08 01:21:21;;;;;;;;;;;;;;;;;;4188109;28;852;-59
2022/03/08 01:23:42;;;;;;;;;;;;;;;;;;4203263;28;943;-59
2022/03/08 01:26:03;;;;;;;;;;;;;;;;;;4203040;28;1347;-59
2022/03/08 01:28:23;;;;;;;;;;;;;;;;;;4205549;28;1024;-59
2022/03/08 01:30:44;;;;;;;;;;;;;;;;;;4206255;28;1012;-59
2022/03/08 01:33:06;;;;;;;;;;;;;;;;;;4206111;28;905;-59
2022/03/08 01:35:28;;;;;;;;;;;;;;;;;;4205739;28;951;-59
2022/03/08 01:37:49;;;;;;;;;;;;;;;;;;4205820;28;1007;-59
2022/03/08 01:40:09;;;;;;;;;;;;;;;;;;4205440;28;1198;-59
2022/03/08 01:42:30;;;;;;;;;;;;;;;;;;4190137;28;818;-60
2022/03/08 01:44:51;;;;;;;;;;;;;;;;;;4205403;28;842;-59
2022/03/08 01:47:11;;;;;;;;;;;;;;;;;;4205773;28;929;-59
2022/03/08 01:49:32;;;;;;;;;;;;;;;;;;4204514;28;894;-59
2022/03/08 01:51:54;;;;;;;;;;;;;;;;;;4190456;28;1910;-59
2022/03/08 01:54:15;;;;;;;;;;;;;;;;;;4205616;28;900;-59
2022/03/08 01:56:35;;;;;;;;;;;;;;;;;;4190554;28;811;-59
2022/03/08 01:58:56;;;;;;;;;;;;;;;;;;4205120;28;934;-59
2022/03/08 02:04:27;;;;;;;;;;;;;;;;;;4205288;28;1560;-59
2022/03/08 02:06:47;;;;;;;;;;;;;;;;;;4205083;28;969;-59
2022/03/08 02:09:08;;;;;;;;;;;;;;;;;;4205417;28;1285;-59
2022/03/08 02:11:29;;;;;;;;;;;;;;;;;;4205259;28;1905;-59
2022/03/08 02:13:50;;;;;;;;;;;;;;;;;;4205381;28;923;-59
2022/03/08 02:16:10;;;;;;;;;;;;;;;;;;4205531;28;1060;-59
2022/03/08 02:18:31;;;;;;;;;;;;;;;;;;4204358;28;1042;-59
2022/03/08 02:20:52;;;;;;;;;;;;;;;;;;4205020;28;1028;-59
2022/03/08 02:23:12;;;;;;;;;;;;;;;;;;4218517;28;901;-59
2022/03/08 02:25:33;;;;;;;;;;;;;;;;;;4205045;28;991;-59
2022/03/08 02:27:54;;;;;;;;;;;;;;;;;;4205065;28;1026;-59
2022/03/08 02:30:14;;;;;;;;;;;;;;;;;;4204720;28;976;-59
2022/03/08 02:32:35;;;;;;;;;;;;;;;;;;4205309;28;1963;-59
2022/03/08 02:34:56;;;;;;;;;;;;;;;;;;4205265;28;1004;-59
2022/03/08 02:37:17;;;;;;;;;;;;;;;;;;4204876;28;929;-59
2022/03/08 02:39:38;;;;;;;;;;;;;;;;;;4204125;28;1071;-59
2022/03/08 02:41:58;;;;;;;;;;;;;;;;;;4204937;28;972;-60
2022/03/08 02:44:19;;;;;;;;;;;;;;;;;;4203935;28;1014;-59
2022/03/08 02:46:39;;;;;;;;;;;;;;;;;;4204889;28;1441;-59
2022/03/08 02:49:00;;;;;;;;;;;;;;;;;;4204812;28;929;-60
2022/03/08 02:51:20;;;;;;;;;;;;;;;;;;4204620;28;778;-59
2022/03/08 02:53:41;;;;;;;;;;;;;;;;;;4203112;28;1017;-59
2022/03/08 02:56:02;;;;;;;;;;;;;;;;;;4204603;28;999;-59
2022/03/08 02:58:22;;;;;;;;;;;;;;;;;;4204391;28;803;-59
2022/03/08 03:00:43;;;;;;;;;;;;;;;;;;4204856;28;813;-59
2022/03/08 03:03:04;;;;;;;;;;;;;;;;;;4204512;28;1005;-59
2022/03/08 03:05:25;;;;;;;;;;;;;;;;;;4208413;28;1317;-58
2022/03/08 03:07:45;;;;;;;;;;;;;;;;;;4204601;28;859;-59
2022/03/08 03:10:06;;;;;;;;;;;;;;;;;;4204469;28;1020;-59
2022/03/08 03:12:27;;;;;;;;;;;;;;;;;;4204263;28;1922;-59
2022/03/08 03:14:47;;;;;;;;;;;;;;;;;;4204168;28;1022;-59
2022/03/08 03:17:08;;;;;;;;;;;;;;;;;;4204077;28;1005;-59
2022/03/08 03:19:28;;;;;;;;;;;;;;;;;;4203832;28;973;-60
2022/03/08 03:21:49;;;;;;;;;;;;;;;;;;4204002;28;947;-59
2022/03/08 03:24:10;;;;;;;;;;;;;;;;;;4204068;28;818;-59
2022/03/08 03:26:31;;;;;;;;;;;;;;;;;;4204507;28;862;-59
2022/03/08 03:28:51;;;;;;;;;;;;;;;;;;4204372;28;810;-59
2022/03/08 03:31:12;;;;;;;;;;;;;;;;;;4204298;28;852;-59
2022/03/08 03:33:32;;;;;;;;;;;;;;;;;;4204258;28;1902;-59
2022/03/08 03:35:53;;;;;;;;;;;;;;;;;;4203224;28;876;-59
2022/03/08 03:38:14;;;;;;;;;;;;;;;;;;4204302;28;841;-59
2022/03/08 03:40:35;;;;;;;;;;;;;;;;;;4204224;28;1321;-59
2022/03/08 03:42:55;;;;;;;;;;;;;;;;;;4202622;28;1243;-59
2022/03/08 03:45:16;;;;;;;;;;;;;;;;;;4204108;28;932;-59
2022/03/08 03:47:37;;;;;;;;;;;;;;;;;;4203853;28;831;-59
2022/03/08 03:49:58;;;;;;;;;;;;;;;;;;4203600;28;811;-59
2022/03/08 03:52:18;;;;;;;;;;;;;;;;;;4203089;28;2086;-58
2022/03/08 03:54:39;;;;;;;;;;;;;;;;;;4203726;28;1006;-59
2022/03/08 03:57:00;;;;;;;;;;;;;;;;;;4203394;28;993;-59
2022/03/08 03:59:21;;;;;;;;;;;;;;;;;;4203858;28;1090;-59
2022/03/08 04:01:41;;;;;;;;;;;;;;;;;;4202866;28;838;-59
2022/03/08 04:04:02;;;;;;;;;;;;;;;;;;4203496;28;1005;-59
2022/03/08 04:06:23;;;;;;;;;;;;;;;;;;4209774;28;1261;-59
2022/03/08 04:08:43;;;;;;;;;;;;;;;;;;4220750;28;1276;-59
2022/03/08 04:11:04;;;;;;;;;;;;;;;;;;4220753;28;966;-59
2022/03/08 04:13:25;;;;;;;;;;;;;;;;;;4220306;28;1905;-59
2022/03/08 04:15:45;;;;;;;;;;;;;;;;;;4220151;28;1216;-59
2022/03/08 04:18:06;;;;;;;;;;;;;;;;;;4220467;28;861;-59
2022/03/08 04:20:26;;;;;;;;;;;;;;;;;;4219574;28;1046;-59
2022/03/08 04:22:46;;;;;;;;;;;;;;;;;;4220564;28;1037;-59
2022/03/08 04:25:07;;;;;;;;;;;;;;;;;;4220350;28;1148;-59
2022/03/08 04:27:28;;;;;;;;;;;;;;;;;;4220578;28;899;-59
2022/03/08 04:29:49;;;;;;;;;;;;;;;;;;4220874;28;793;-59
2022/03/08 04:32:10;;;;;;;;;;;;;;;;;;4220512;28;1914;-60
2022/03/08 04:34:30;;;;;;;;;;;;;;;;;;4220412;28;956;-59
2022/03/08 04:36:51;;;;;;;;;;;;;;;;;;4220292;28;775;-59
2022/03/08 04:39:11;;;;;;;;;;;;;;;;;;4220218;28;1296;-59
2022/03/08 04:41:32;;;;;;;;;;;;;;;;;;4220424;28;1234;-59
2022/03/08 04:43:53;;;;;;;;;;;;;;;;;;4220275;28;841;-60
2022/03/08 04:46:14;;;;;;;;;;;;;;;;;;4204891;28;1039;-60
2022/03/08 04:48:34;;;;;;;;;;;;;;;;;;4220380;28;996;-59
2022/03/08 04:50:55;;;;;;;;;;;;;;;;;;4220220;28;853;-60
2022/03/08 04:53:16;;;;;;;;;;;;;;;;;;4220177;28;1979;-60
2022/03/08 04:55:36;;;;;;;;;;;;;;;;;;4220071;28;1055;-59
2022/03/08 04:58:01;;;;;;;;;;;;;;;;;;4218946;28;832;-58
2022/03/08 05:00:21;;;;;;;;;;;;;;;;;;4219546;28;964;-60
2022/03/08 05:02:42;;;;;;;;;;;;;;;;;;4221710;28;1009;-60
2022/03/08 05:05:02;;;;;;;;;;;;;;;;;;4223440;28;1000;-60
2022/03/08 05:07:23;;;;;;;;;;;;;;;;;;4222929;28;942;-60
2022/03/08 05:09:44;;;;;;;;;;;;;;;;;;4223211;28;1055;-60
2022/03/08 05:12:04;;;;;;;;;;;;;;;;;;4223195;28;804;-60
2022/03/08 05:14:25;;;;;;;;;;;;;;;;;;4207652;28;798;-59
2022/03/08 05:16:46;;;;;;;;;;;;;;;;;;4207615;28;910;-59
2022/03/08 05:19:07;;;;;;;;;;;;;;;;;;4222830;28;833;-60
2022/03/08 05:21:28;;;;;;;;;;;;;;;;;;4222948;28;832;-60
2022/03/08 05:23:48;;;;;;;;;;;;;;;;;;4222953;28;828;-59
2022/03/08 05:26:10;;;;;;;;;;;;;;;;;;4207435;28;1041;-60
2022/03/08 05:28:31;;;;;;;;;;;;;;;;;;4222845;28;837;-59
2022/03/08 05:30:51;;;;;;;;;;;;;;;;;;4222484;28;1018;-59
2022/03/08 05:33:12;;;;;;;;;;;;;;;;;;4222938;28;1918;-60
2022/03/08 05:35:34;;;;;;;;;;;;;;;;;;4222850;28;945;-59
2022/03/08 05:37:54;;;;;;;;;;;;;;;;;;4223034;28;855;-59
2022/03/08 05:40:15;;;;;;;;;;;;;;;;;;4222783;28;1301;-60
2022/03/08 05:42:38;;;;;;;;;;;;;;;;;;4222772;28;1025;-60
2022/03/08 05:44:58;;;;;;;;;;;;;;;;;;4222553;28;997;-60
2022/03/08 05:47:19;;;;;;;;;;;;;;;;;;4222781;28;970;-59
2022/03/08 05:49:39;;;;;;;;;;;;;;;;;;4222801;28;1049;-60
2022/03/08 05:52:00;;;;;;;;;;;;;;;;;;4222691;28;831;-60
2022/03/08 05:54:21;;;;;;;;;;;;;;;;;;4221446;28;1901;-60
2022/03/08 05:56:42;;;;;;;;;;;;;;;;;;4217798;28;1295;-60
2022/03/08 05:59:03;;;;;;;;;;;;;;;;;;4221007;28;935;-60
2022/03/08 06:01:24;;;;;;;;;;;;;;;;;;4221245;28;1055;-60
2022/03/08 06:03:44;;;;;;;;;;;;;;;;;;4189311;28;1168;-60
2022/03/08 06:06:05;;;;;;;;;;;;;;;;;;4204937;28;903;-61
2022/03/08 06:08:26;;;;;;;;;;;;;;;;;;4204042;28;1075;-60
2022/03/08 06:10:47;;;;;;;;;;;;;;;;;;4204321;28;1077;-60
2022/03/08 06:13:08;;;;;;;;;;;;;;;;;;4204012;28;1980;-61
2022/03/08 06:15:28;;;;;;;;;;;;;;;;;;4204390;28;1014;-60
2022/03/08 06:17:49;;;;;;;;;;;;;;;;;;4204604;28;906;-60
2022/03/08 06:20:10;;;;;;;;;;;;;;;;;;4204656;28;906;-62
2022/03/08 06:22:31;;;;;;;;;;;;;;;;;;4213591;28;1121;-61
2022/03/08 06:24:52;;;;;;;;;;;;;;;;;;4221007;28;940;-60
2022/03/08 06:27:13;;;;;;;;;;;;;;;;;;4218566;28;1275;-60
2022/03/08 06:29:34;;;;;;;;;;;;;;;;;;4205441;28;977;-60
2022/03/08 06:31:55;;;;;;;;;;;;;;;;;;4220588;28;1053;-60
2022/03/08 06:34:15;;;;;;;;;;;;;;;;;;4221367;28;1918;-59
2022/03/08 06:36:36;;;;;;;;;;;;;;;;;;4205275;28;993;-60
2022/03/08 06:38:57;;;;;;;;;;;;;;;;;;4220266;28;1091;-59
2022/03/08 06:41:18;;;;;;;;;;;;;;;;;;4220017;28;1015;-59
2022/03/08 06:43:39;;;;;;;;;;;;;;;;;;4205227;28;1576;-59
2022/03/08 06:45:59;;;;;;;;;;;;;;;;;;4203869;28;1160;-59
2022/03/08 06:48:20;;;;;;;;;;;;;;;;;;4205099;28;1009;-60
2022/03/08 06:50:41;;;;;;;;;;;;;;;;;;4203942;28;826;-60
2022/03/08 06:53:01;;;;;;;;;;;;;;;;;;4204498;28;1914;-60
2022/03/08 06:55:22;;;;;;;;;;;;;;;;;;4204996;28;826;-60
2022/03/08 06:57:43;;;;;;;;;;;;;;;;;;4204913;28;937;-60
2022/03/08 07:00:04;;;;;;;;;;;;;;;;;;4205349;28;944;-61
2022/03/08 07:02:25;;;;;;;;;;;;;;;;;;4204724;28;833;-61
2022/03/08 07:04:46;;;;;;;;;;;;;;;;;;4204859;28;904;-63
2022/03/08 07:07:06;;;;;;;;;;;;;;;;;;4204848;28;997;-61
2022/03/08 07:09:27;;;;;;;;;;;;;;;;;;4204724;28;1134;-62
2022/03/08 07:11:48;;;;;;;;;;;;;;;;;;4204773;28;944;-62
2022/03/08 07:14:09;;;;;;;;;;;;;;;;;;4204655;28;1982;-61
2022/03/08 07:16:29;;;;;;;;;;;;;;;;;;4204678;28;829;-61
2022/03/08 07:18:50;;;;;;;;;;;;;;;;;;4214808;28;865;-61
2022/03/08 07:21:10;;;;;;;;;;;;;;;;;;4220698;28;834;-61
2022/03/08 07:23:32;;;;;;;;;;;;;;;;;;4220738;28;953;-62
2022/03/08 07:25:53;;;;;;;;;;;;;;;;;;4220355;28;1046;-62
2022/03/08 07:28:13;;;;;;;;;;;;;;;;;;4220634;28;1105;-61
2022/03/08 07:30:49;;;;;;;;;;;;;;;;;;4220452;28;956;-61
2022/03/08 07:33:10;;;;;;;;;;;;;;;;;;4220336;28;993;-61
2022/03/08 07:35:30;;;;;;;;;;;;;;;;;;4220515;28;934;-62
2022/03/08 07:37:51;;;;;;;;;;;;;;;;;;4210587;28;2094;-61
2022/03/08 07:40:12;;;;;;;;;;;;;;;;;;4217166;28;1317;-61
2022/03/08 07:42:33;;;;;;;;;;;;;;;;;;4219515;28;1220;-62
2022/03/08 07:44:53;;;;;;;;;;;;;;;;;;4219900;28;875;-62
2022/03/08 07:47:14;;;;;;;;;;;;;;;;;;4219376;28;1085;-61
2022/03/08 07:49:35;;;;;;;;;;;;;;;;;;4219770;28;934;-62
2022/03/08 07:51:57;;;;;;;;;;;;;;;;;;4208788;28;1320;-61
2022/03/08 07:54:17;;;;;;;;;;;;;;;;;;4203048;28;1914;-61
2022/03/08 07:56:38;;;;;;;;;;;;;;;;;;4218487;28;1113;-61
2022/03/08 07:58:58;;;;;;;;;;;;;;;;;;4201238;28;903;-61
2022/03/08 08:01:19;;;;;;;;;;;;;;;;;;4203052;28;898;-62
2022/03/08 08:03:40;;;;;;;;;;;;;;;;;;4201639;28;888;-61
2022/03/08 08:06:01;;;;;;;;;;;;;;;;;;4213120;28;935;-62
2022/03/08 08:08:22;;;;;;;;;;;;;;;;;;4219546;28;864;-61
2022/03/08 08:10:42;;;;;;;;;;;;;;;;;;4219248;28;902;-62
2022/03/08 08:13:04;;;;;;;;;;;;;;;;;;4219107;28;943;-61
2022/03/08 08:15:24;;;;;;;;;;;;;;;;;;4219165;28;1929;-62
2022/03/08 08:17:45;;;;;;;;;;;;;;;;;;4219511;28;928;-61
2022/03/08 08:20:06;;;;;;;;;;;;;;;;;;4218766;28;1247;-62
2022/03/08 08:22:26;;;;;;;;;;;;;;;;;;4218935;28;1350;-62
2022/03/08 08:24:47;;;;;;;;;;;;;;;;;;4219325;28;1022;-62
2022/03/08 08:27:08;;;;;;;;;;;;;;;;;;4219159;28;863;-62
2022/03/08 08:29:28;;;;;;;;;;;;;;;;;;4218787;28;1140;-61
2022/03/08 08:31:49;;;;;;;;;;;;;;;;;;4201725;28;1061;-62
2022/03/08 08:34:10;;;;;;;;;;;;;;;;;;4201989;28;1921;-62
2022/03/08 08:36:31;;;;;;;;;;;;;;;;;;4192011;28;1089;-62
2022/03/08 08:38:51;;;;;;;;;;;;;;;;;;4219393;28;1302;-63
2022/03/08 08:41:12;;;;;;;;;;;;;;;;;;4219417;28;897;-63
2022/03/08 08:43:32;;;;;;;;;;;;;;;;;;4219100;28;941;-61
2022/03/08 08:45:53;;;;;;;;;;;;;;;;;;4219084;28;832;-62
2022/03/08 08:48:14;;;;;;;;;;;;;;;;;;4219036;28;917;-62
2022/03/08 08:50:34;;;;;;;;;;;;;;;;;;4219005;28;1137;-62
2022/03/08 08:52:55;;;;;;;;;;;;;;;;;;4203408;28;1098;-62
2022/03/08 08:55:16;;;;;;;;;;;;;;;;;;4218846;28;1913;-61
2022/03/08 08:57:37;;;;;;;;;;;;;;;;;;4219419;28;919;-61
2022/03/08 08:59:58;;;;;;;;;;;;;;;;;;4218685;28;926;-63
2022/03/08 09:02:19;;;;;;;;;;;;;;;;;;4218824;28;846;-61
2022/03/08 09:04:40;;;;;;;;;;;;;;;;;;4218723;28;1037;-61
2022/03/08 09:07:00;;;;;;;;;;;;;;;;;;4217199;28;970;-62
2022/03/08 09:09:21;;;;;;;;;;;;;;;;;;4203608;28;977;-62
2022/03/08 09:11:42;;;;;;;;;;;;;;;;;;4218569;28;1058;-61
2022/03/08 09:14:04;;;;;;;;;;;;;;;;;;4218641;28;1906;-62
2022/03/08 09:16:25;;;;;;;;;;;;;;;;;;4218609;28;875;-62
2022/03/08 09:18:45;;;;;;;;;;;;;;;;;;4219013;28;1017;-62
2022/03/08 09:21:06;;;;;;;;;;;;;;;;;;4203502;28;1012;-61
2022/03/08 09:23:27;;;;;;;;;;;;;;;;;;4218577;28;932;-62
2022/03/08 09:25:48;;;;;;;;;;;;;;;;;;4218782;28;1024;-61
2022/03/08 09:28:08;;;;;;;;;;;;;;;;;;4218409;28;1038;-62
2022/03/08 09:30:29;;;;;;;;;;;;;;;;;;4218480;28;1042;-62
2022/03/08 09:32:50;;;;;;;;;;;;;;;;;;4209228;28;1112;-62
2022/03/08 09:35:11;;;;;;;;;;;;;;;;;;4218298;28;1909;-62
2022/03/08 09:37:32;;;;;;;;;;;;;;;;;;4217950;28;1029;-62
2022/03/08 09:39:52;;;;;;;;;;;;;;;;;;4218357;28;1198;-61
2022/03/08 09:42:13;;;;;;;;;;;;;;;;;;4187588;28;1948;-61
2022/03/08 09:44:34;;;;;;;;;;;;;;;;;;4200990;28;1228;-61
2022/03/08 09:46:54;;;;;;;;;;;;;;;;;;4201671;28;1023;-62
2022/03/08 09:49:15;;;;;;;;;;;;;;;;;;4215082;28;894;-61
2022/03/08 09:51:36;;;;;;;;;;;;;;;;;;4221314;28;1473;-63
2022/03/08 09:53:57;;;;;;;;;;;;;;;;;;4221169;28;983;-62
2022/03/08 09:56:19;;;;;;;;;;;;;;;;;;4204272;28;987;-63
2022/03/08 09:58:40;;;;;;;;;;;;;;;;;;4204198;28;828;-61
2022/03/08 10:01:01;;;;;;;;;;;;;;;;;;4204388;28;1240;-61
2022/03/08 10:03:22;;;;;;;;;;;;;;;;;;4214194;28;1001;-62
2022/03/08 10:05:43;;;;;;;;;;;;;;;;;;4221114;28;941;-61
2022/03/08 10:08:04;;;;;;;;;;;;;;;;;;4221022;28;1254;-61
2022/03/08 10:10:25;;;;;;;;;;;;;;;;;;4220747;28;997;-61
2022/03/08 10:12:46;;;;;;;;;;;;;;;;;;4221260;28;1017;-62
2022/03/08 10:15:07;;;;;;;;;;;;;;;;;;4205747;28;1913;-61
2022/03/08 10:17:27;;;;;;;;;;;;;;;;;;4220639;28;837;-61
2022/03/08 10:19:48;;;;;;;;;;;;;;;;;;4221160;28;847;-61
2022/03/08 10:22:09;;;;;;;;;;;;;;;;;;4219423;28;1589;-61
2022/03/08 10:24:31;;;;;;;;;;;;;;;;;;4220660;28;976;-62
2022/03/08 10:26:51;;;;;;;;;;;;;;;;;;4220580;28;1105;-63
2022/03/08 10:29:12;;;;;;;;;;;;;;;;;;4212485;28;1103;-62
2022/03/08 10:31:33;;;;;;;;;;;;;;;;;;4215122;28;1697;-62
2022/03/08 10:33:54;;;;;;;;;;;;;;;;;;4220603;28;851;-63
2022/03/08 10:36:15;;;;;;;;;;;;;;;;;;4220583;28;1913;-62
2022/03/08 10:38:36;;;;;;;;;;;;;;;;;;4217070;28;2126;-61
2022/03/08 10:40:57;;;;;;;;;;;;;;;;;;4202572;28;837;-61
2022/03/08 10:43:17;;;;;;;;;;;;;;;;;;4202672;28;1323;-61
2022/03/08 10:45:38;;;;;;;;;;;;;;;;;;4202516;28;1246;-61
2022/03/08 10:47:59;;;;;;;;;;;;;;;;;;4201575;28;928;-62
2022/03/08 10:50:20;;;;;;;;;;;;;;;;;;4202158;28;923;-61
2022/03/08 10:52:40;;;;;;;;;;;;;;;;;;4212848;28;1366;-62
2022/03/08 10:55:01;;;;;;;;;;;;;;;;;;4219272;28;1973;-61
2022/03/08 10:57:22;;;;;;;;;;;;;;;;;;4219385;28;893;-62
2022/03/08 10:59:42;;;;;;;;;;;;;;;;;;4219458;28;774;-61
2022/03/08 11:02:03;;;;;;;;;;;;;;;;;;4221229;28;842;-62
2022/03/08 11:04:24;;;;;;;;;;;;;;;;;;4220965;28;874;-61
2022/03/08 11:06:44;;;;;;;;;;;;;;;;;;4221374;28;873;-61
2022/03/08 11:09:05;;;;;;;;;;;;;;;;;;4221537;28;1004;-62
2022/03/08 11:11:26;;;;;;;;;;;;;;;;;;4221419;28;1022;-62
2022/03/08 11:13:47;;;;;;;;;;;;;;;;;;4220768;28;970;-61
2022/03/08 11:16:08;;;;;;;;;;;;;;;;;;4221703;28;1956;-61
2022/03/08 11:18:29;;;;;;;;;;;;;;;;;;4204992;28;852;-61
2022/03/08 11:20:50;;;;;;;;;;;;;;;;;;4221410;28;910;-61
2022/03/08 11:23:10;;;;;;;;;;;;;;;;;;4220258;28;1123;-62
2022/03/08 11:25:31;;;;;;;;;;;;;;;;;;4221183;28;813;-62
2022/03/08 11:27:52;;;;;;;;;;;;;;;;;;4221680;28;840;-61
2022/03/08 11:30:12;;;;;;;;;;;;;;;;;;4221484;28;953;-61
2022/03/08 11:32:33;;;;;;;;;;;;;;;;;;4221056;28;832;-61
2022/03/08 11:34:54;;;;;;;;;;;;;;;;;;4220574;28;1913;-61
2022/03/08 11:37:15;;;;;;;;;;;;;;;;;;4221089;28;860;-61
2022/03/08 11:39:39;;;;;;;;;;;;;;;;;;4220634;28;997;-62
2022/03/08 11:42:00;;;;;;;;;;;;;;;;;;4221094;28;850;-63
2022/03/08 11:44:21;;;;;;;;;;;;;;;;;;4221519;28;872;-61
2022/03/08 11:46:42;;;;;;;;;;;;;;;;;;4220609;28;929;-62
2022/03/08 11:49:03;;;;;;;;;;;;;;;;;;4220939;28;911;-62
2022/03/08 11:51:24;;;;;;;;;;;;;;;;;;4220966;28;833;-61
2022/03/08 11:53:47;;;;;;;;;;;;;;;;;;4220933;28;821;-62
2022/03/08 11:56:07;;;;;;;;;;;;;;;;;;4221090;28;2000;-62
2022/03/08 11:58:30;;;;;;;;;;;;;;;;;;4220954;28;794;-62
2022/03/08 12:00:51;;;;;;;;;;;;;;;;;;4221091;28;829;-61
2022/03/08 12:03:11;;;;;;;;;;;;;;;;;;4221007;28;828;-61
2022/03/08 12:05:32;;;;;;;;;;;;;;;;;;4220551;28;893;-62
2022/03/08 12:07:53;;;;;;;;;;;;;;;;;;4220361;28;998;-61
2022/03/08 12:10:14;;;;;;;;;;;;;;;;;;4221012;28;1013;-61
2022/03/08 12:12:34;;;;;;;;;;;;;;;;;;4219708;28;874;-62
2022/03/08 12:14:55;;;;;;;;;;;;;;;;;;4219739;28;997;-61
2022/03/08 12:17:15;;;;;;;;;;;;;;;;;;4220502;28;1124;-62
2022/03/08 12:19:37;;;;;;;;;;;;;;;;;;4220222;28;969;-62
2022/03/08 12:21:57;;;;;;;;;;;;;;;;;;4220618;28;1145;-62
2022/03/08 12:24:18;;;;;;;;;;;;;;;;;;4220395;28;813;-62
2022/03/08 12:26:39;;;;;;;;;;;;;;;;;;4220202;28;964;-62
2022/03/08 12:28:59;;;;;;;;;;;;;;;;;;4220100;28;837;-61
2022/03/08 12:31:20;;;;;;;;;;;;;;;;;;4220244;28;891;-62
2022/03/08 12:33:41;;;;;;;;;;;;;;;;;;4218620;28;1178;-61
2022/03/08 12:36:01;;;;;;;;;;;;;;;;;;4201460;28;1905;-61
2022/03/08 12:38:22;;;;;;;;;;;;;;;;;;4213409;28;1031;-63
2022/03/08 12:40:42;;;;;;;;;;;;;;;;;;4219116;28;1203;-61
2022/03/08 12:43:03;;;;;;;;;;;;;;;;;;4219036;28;1230;-61
2022/03/08 12:45:24;;;;;;;;;;;;;;;;;;4217663;28;1618;-62
2022/03/08 12:47:46;;;;;;;;;;;;;;;;;;4203260;28;979;-62
2022/03/08 12:50:06;;;;;;;;;;;;;;;;;;4217360;28;1059;-62
2022/03/08 12:52:27;;;;;;;;;;;;;;;;;;4218853;28;952;-66
2022/03/08 12:54:47;;;;;;;;;;;;;;;;;;4218967;28;936;-62
2022/03/08 12:57:08;;;;;;;;;;;;;;;;;;4217720;28;1981;-62
2022/03/08 12:59:28;;;;;;;;;;;;;;;;;;4203906;28;897;-61
2022/03/08 13:01:49;;;;;;;;;;;;;;;;;;4218483;28;1013;-62
2022/03/08 13:04:10;;;;;;;;;;;;;;;;;;4219145;28;936;-62
2022/03/08 13:06:31;;;;;;;;;;;;;;;;;;4219052;28;813;-62
2022/03/08 13:08:52;;;;;;;;;;;;;;;;;;4220308;28;1015;-62
2022/03/08 13:11:13;;;;;;;;;;;;;;;;;;4219714;28;997;-62
2022/03/08 13:13:33;;;;;;;;;;;;;;;;;;4220081;28;795;-62
2022/03/08 13:15:54;;;;;;;;;;;;;;;;;;4220067;28;1882;-62
2022/03/08 13:18:14;;;;;;;;;;;;;;;;;;4219079;28;1189;-63
2022/03/08 13:20:35;;;;;;;;;;;;;;;;;;4220057;28;866;-62
2022/03/08 13:22:56;;;;;;;;;;;;;;;;;;4204895;28;901;-62
2022/03/08 13:25:18;;;;;;;;;;;;;;;;;;4222850;28;777;-60
2022/03/08 13:27:39;;;;;;;;;;;;;;;;;;4219056;28;1421;-60
2022/03/08 13:30:00;;;;;;;;;;;;;;;;;;4219303;28;1045;-61
2022/03/08 13:32:20;;;;;;;;;;;;;;;;;;4222272;28;974;-62
2022/03/08 13:34:41;;;;;;;;;;;;;;;;;;4221708;28;779;-62
2022/03/08 13:37:02;;;;;;;;;;;;;;;;;;4219797;28;1957;-62
2022/03/08 13:39:22;;;;;;;;;;;;;;;;;;4220977;28;1602;-62
2022/03/08 13:41:43;;;;;;;;;;;;;;;;;;4221119;28;817;-62
2022/03/08 13:44:04;;;;;;;;;;;;;;;;;;4221062;28;822;-62
2022/03/08 13:46:25;;;;;;;;;;;;;;;;;;4221217;28;855;-62
2022/03/08 13:48:46;;;;;;;;;;;;;;;;;;4220665;28;985;-62
2022/03/08 13:51:08;;;;;;;;;;;;;;;;;;4204124;28;1082;-61
2022/03/08 13:53:28;;;;;;;;;;;;;;;;;;4204810;28;766;-61
2022/03/08 13:55:49;;;;;;;;;;;;;;;;;;4205250;28;1992;-61
2022/03/08 13:58:10;;;;;;;;;;;;;;;;;;4205338;28;946;-61
2022/03/08 14:00:30;;;;;;;;;;;;;;;;;;4205834;28;1010;-62
2022/03/08 14:02:51;;;;;;;;;;;;;;;;;;4205915;28;919;-62
2022/03/08 14:05:12;;;;;;;;;;;;;;;;;;4218805;28;874;-61
2022/03/08 14:07:32;;;;;;;;;;;;;;;;;;4222583;28;1000;-62
2022/03/08 14:09:53;;;;;;;;;;;;;;;;;;4222291;28;976;-61
2022/03/08 14:12:14;;;;;;;;;;;;;;;;;;4221564;28;1015;-61
2022/03/08 14:14:35;;;;;;;;;;;;;;;;;;4222033;28;1002;-61
2022/03/08 14:16:56;;;;;;;;;;;;;;;;;;4222140;28;1914;-62
2022/03/08 14:19:17;;;;;;;;;;;;;;;;;;4222254;28;1087;-62
2022/03/08 14:21:37;;;;;;;;;;;;;;;;;;4222144;28;770;-61
2022/03/08 14:23:58;;;;;;;;;;;;;;;;;;4220813;28;2294;-60
2022/03/08 14:26:21;;;;;;;;;;;;;;;;;;4221332;28;1056;-61
2022/03/08 14:28:41;;;;;;;;;;;;;;;;;;4221635;28;952;-60
2022/03/08 14:31:02;;;;;;;;;;;;;;;;;;4221019;28;813;-60
2022/03/08 14:33:23;;;;;;;;;;;;;;;;;;4220957;28;818;-60
2022/03/08 14:35:45;;;;;;;;;;;;;;;;;;4218867;28;860;-61
2022/03/08 14:38:06;;;;;;;;;;;;;;;;;;4222021;28;913;-60
2022/03/08 14:40:27;;;;;;;;;;;;;;;;;;4212551;28;1494;-61
2022/03/08 14:42:59;;;;;;;;;;;;;;;;;;4203431;28;942;-60
2022/03/08 14:45:20;;;;;;;;;;;;;;;;;;4212254;28;958;-60
2022/03/08 14:47:41;;;;;;;;;;;;;;;;;;4220044;28;1021;-60
2022/03/08 14:50:03;;;;;;;;;;;;;;;;;;4219561;28;964;-62
2022/03/08 14:52:24;;;;;;;;;;;;;;;;;;4205828;28;1554;-62
2022/03/08 14:54:45;;;;;;;;;;;;;;;;;;4203551;28;1004;-65
2022/03/08 14:57:06;;;;;;;;;;;;;;;;;;4204171;28;1897;-60
2022/03/08 14:59:27;;;;;;;;;;;;;;;;;;4204077;28;1632;-61
2022/03/08 15:01:47;;;;;;;;;;;;;;;;;;4204640;28;841;-60
2022/03/08 15:04:08;;;;;;;;;;;;;;;;;;4204791;28;820;-61
2022/03/08 15:06:29;;;;;;;;;;;;;;;;;;4204904;28;881;-62
2022/03/08 15:08:52;;;;;;;;;;;;;;;;;;4205162;28;926;-62
2022/03/08 15:11:13;;;;;;;;;;;;;;;;;;4203985;28;813;-61
2022/03/08 15:13:33;;;;;;;;;;;;;;;;;;4204680;28;822;-60
2022/03/08 15:15:54;;;;;;;;;;;;;;;;;;4204329;28;878;-61
2022/03/08 15:18:14;;;;;;;;;;;;;;;;;;4204469;28;778;-61
2022/03/08 15:20:36;;;;;;;;;;;;;;;;;;4204223;28;938;-61
2022/03/08 15:22:56;;;;;;;;;;;;;;;;;;4217041;28;1121;-60
2022/03/08 15:25:17;;;;;;;;;;;;;;;;;;4221095;28;998;-59
2022/03/08 15:27:38;;;;;;;;;;;;;;;;;;4220979;28;1022;-60
2022/03/08 15:29:58;;;;;;;;;;;;;;;;;;4221370;28;920;-61
2022/03/08 15:32:19;;;;;;;;;;;;;;;;;;4220768;28;946;-59
2022/03/08 15:34:40;;;;;;;;;;;;;;;;;;4221008;28;833;-60
2022/03/08 15:37:00;;;;;;;;;;;;;;;;;;4220564;28;1905;-61
2022/03/08 15:39:21;;;;;;;;;;;;;;;;;;4221073;28;1179;-61
2022/03/08 15:41:42;;;;;;;;;;;;;;;;;;4221145;28;942;-62
2022/03/08 15:44:03;;;;;;;;;;;;;;;;;;4205490;28;1811;-62
2022/03/08 15:46:23;;;;;;;;;;;;;;;;;;4202910;28;871;-62
2022/03/08 15:48:45;;;;;;;;;;;;;;;;;;4206675;28;2376;-62
2022/03/08 15:51:06;;;;;;;;;;;;;;;;;;4204071;28;1072;-62
2022/03/08 15:53:26;;;;;;;;;;;;;;;;;;4220096;28;1084;-62
2022/03/08 15:55:47;;;;;;;;;;;;;;;;;;4220125;28;925;-62
2022/03/08 15:58:07;;;;;;;;;;;;;;;;;;4219923;28;1901;-62
2022/03/08 16:00:29;;;;;;;;;;;;;;;;;;4220853;28;846;-62
2022/03/08 16:02:50;;;;;;;;;;;;;;;;;;4219786;28;778;-62
2022/03/08 16:05:10;;;;;;;;;;;;;;;;;;4220675;28;930;-65
2022/03/08 16:07:32;;;;;;;;;;;;;;;;;;4204423;28;1443;-65
2022/03/08 16:09:54;;;;;;;;;;;;;;;;;;4218761;28;1491;-65
2022/03/08 16:12:15;;;;;;;;;;;;;;;;;;4219192;28;918;-66
2022/03/08 16:14:35;;;;;;;;;;;;;;;;;;4219197;28;818;-65
2022/03/08 16:16:56;;;;;;;;;;;;;;;;;;4218282;28;1910;-65
2022/03/08 16:19:17;;;;;;;;;;;;;;;;;;4204364;28;818;-65
2022/03/08 16:21:38;;;;;;;;;;;;;;;;;;4203610;28;937;-65
2022/03/08 16:23:59;;;;;;;;;;;;;;;;;;4203529;28;873;-67
2022/03/08 16:26:26;;;;;;;;;;;;;;;;;;4203550;28;933;-67
2022/03/08 16:28:47;;;;;;;;;;;;;;;;;;4203569;28;891;-65
2022/03/08 16:31:07;;;;;;;;;;;;;;;;;;4203129;28;868;-65